Time;durP1;ratioP1;P1;durP2;ratioP2;P2;SDS_P1;SDS_P2;PMS_P1;PMS_P2;Temp;Humidity;BMP_temperature;BMP_pressure;BME280_temperature;BME280_humidity;BME280_pressure;Samples;Min_cycle;Max_cycle;Signal;HPM_P1;HPM_P2
2022/05/11 00:00:46;;;;;;;3.67;3.37;;;21.90;62.70;;;22.43;42.77;98712.00;4977844;28;114477;-88
2022/05/11 00:03:13;;;;;;;4.23;3.83;;;21.90;62.80;;;22.41;43.23;98711.59;4980298;28;115089;-89
2022/05/11 00:05:40;;;;;;;4.00;3.70;;;21.90;62.80;;;22.38;43.16;98715.19;4974163;28;124020;-87
2022/05/11 00:08:07;;;;;;;3.57;3.30;;;21.90;63.00;;;22.35;43.35;98707.50;4956517;28;123923;-88
2022/05/11 00:10:35;;;;;;;3.90;3.60;;;21.80;63.60;;;22.33;43.37;98715.56;4965468;28;114343;-89
2022/05/11 00:13:01;;;;;;;4.37;3.53;;;21.80;63.00;;;22.31;43.22;98708.72;4990560;28;113975;-90
2022/05/11 00:15:29;;;;;;;3.93;3.63;;;21.80;63.10;;;22.27;43.41;98719.94;4968116;28;124032;-88
2022/05/11 00:17:56;;;;;;;4.00;3.70;;;21.70;63.10;;;22.25;43.42;98702.66;4973502;28;123037;-88
2022/05/11 00:20:24;;;;;;;4.27;3.87;;;21.70;63.30;;;22.22;43.50;98711.88;5000680;28;114319;-89
2022/05/11 00:22:56;;;;;;;3.80;3.40;;;21.70;63.30;;;22.19;43.24;98704.22;4965510;28;114269;-90
2022/05/11 00:25:26;;;;;;;4.00;3.60;;;21.60;63.40;;;22.16;43.69;98702.94;4986400;28;124023;-91
2022/05/11 00:27:53;;;;;;;4.43;4.03;;;21.60;63.50;;;22.13;43.73;98700.94;4971365;28;123854;-89
2022/05/11 00:30:21;;;;;;;3.50;3.20;;;21.60;63.70;;;22.11;43.79;98700.53;4997303;28;113907;-88
2022/05/11 00:32:52;;;;;;;4.80;3.90;;;21.60;63.60;;;22.09;43.78;98702.13;4982257;28;113625;-88
2022/05/11 00:35:19;;;;;;;4.30;3.90;;;21.50;63.60;;;22.07;43.58;98699.69;4954462;28;123331;-89
2022/05/11 00:37:46;;;;;;;4.30;3.90;;;21.50;63.70;;;22.03;43.85;98696.88;5000594;28;123848;-89
2022/05/11 00:40:13;;;;;;;4.20;3.80;;;21.50;63.90;;;22.02;43.60;98700.06;4973788;28;114217;-89
2022/05/11 00:42:40;;;;;;;3.77;3.43;;;21.40;63.90;;;21.98;43.80;98700.03;4971580;28;114430;-89
2022/05/11 00:45:07;;;;;;;4.10;3.70;;;21.40;64.00;;;21.96;43.98;98699.63;4972331;28;123374;-89
2022/05/11 00:47:41;;;;;;;4.50;4.10;;;21.40;64.00;;;21.93;43.75;98693.97;4972788;28;122676;-88
2022/05/11 00:50:33;;;;;;;3.80;3.50;;;21.40;64.20;;;21.90;44.28;98691.97;4970347;28;114911;-88
2022/05/11 00:53:12;;;;;;;3.87;3.47;;;21.40;64.60;;;21.87;44.18;98692.72;4986296;28;115289;-89
2022/05/11 00:55:55;;;;;;;3.57;3.27;;;21.30;64.40;;;21.85;44.34;98690.31;4984377;28;124115;-89
2022/05/11 00:58:41;;;;;;;5.03;3.73;;;21.30;64.60;;;21.81;44.42;98687.44;4955301;28;124565;-90
2022/05/11 01:01:09;;;;;;;4.47;4.07;;;21.20;64.60;;;21.80;44.51;98687.84;5004065;28;113585;-90
2022/05/11 01:04:05;;;;;;;4.87;3.93;;;21.20;64.80;;;21.76;44.14;98681.38;5002067;28;113758;-89
2022/05/11 01:06:33;;;;;;;3.90;3.40;;;21.30;64.80;;;21.74;44.57;98678.19;4981130;28;123133;-89
2022/05/11 01:09:01;;;;;;;4.20;3.80;;;21.20;64.90;;;21.72;44.56;98681.38;4972403;28;124324;-88
2022/05/11 01:11:29;;;;;;;4.23;3.83;;;21.20;65.00;;;21.71;44.24;98687.38;5003122;28;114189;-89
2022/05/11 01:13:57;;;;;;;3.50;3.20;;;21.20;65.10;;;21.69;44.51;98689.78;4984142;28;114156;-89
2022/05/11 01:16:27;;;;;;;4.20;3.80;;;21.10;65.00;;;21.67;44.19;98686.53;4983702;28;124063;-89
2022/05/11 01:18:54;;;;;;;4.10;3.30;;;21.10;65.10;;;21.65;44.60;98678.47;4969119;28;123855;-90
2022/05/11 01:21:22;;;;;;;4.17;3.77;;;21.10;65.20;;;21.63;44.62;98680.91;4978870;28;114431;-89
2022/05/11 01:24:20;;;;;;;3.40;3.10;;;21.10;65.20;;;21.60;44.54;98679.69;4994919;28;114009;-89
2022/05/11 01:26:47;;;;;;;5.03;3.60;;;21.10;65.30;;;21.58;44.51;98684.06;4991956;28;123459;-90
2022/05/11 01:29:14;;;;;;;3.30;3.00;;;21.00;65.30;;;21.55;44.34;98680.03;4961266;28;124184;-90
2022/05/11 01:31:40;;;;;;;3.83;3.40;;;21.00;65.30;;;21.55;44.31;98685.66;4969290;28;113952;-87
2022/05/11 01:34:07;;;;;;;3.63;3.33;;;21.00;65.30;;;21.54;44.22;98678.41;4960478;28;113159;-89
2022/05/11 01:36:35;;;;;;;3.07;2.80;;;21.00;65.30;;;21.52;44.29;98683.63;4961822;28;124208;-89
2022/05/11 01:39:07;;;;;;;3.17;2.90;;;20.90;65.30;;;21.51;44.54;98681.19;4991801;28;123256;-88
2022/05/11 01:41:40;;;;;;;3.40;3.10;;;20.90;65.30;;;21.48;44.58;98674.34;4990881;28;115244;-89
2022/05/11 01:44:16;;;;;;;3.40;3.10;;;20.90;65.30;;;21.46;44.49;98673.91;5000921;28;115052;-91
2022/05/11 01:46:54;;;;;;;4.50;3.80;;;20.90;65.20;;;21.43;44.61;98673.91;4994699;28;124631;-89
2022/05/11 01:49:23;;;;;;;3.80;3.50;;;20.90;65.40;;;21.40;44.66;98678.28;4996751;28;122219;-91
2022/05/11 01:51:49;;;;;;;3.67;3.37;;;20.80;65.40;;;21.38;44.75;98667.41;4965124;28;114309;-89
2022/05/11 01:54:17;;;;;;;3.40;3.10;;;20.80;65.50;;;21.37;44.45;98679.03;4967998;28;114174;-90
2022/05/11 01:56:43;;;;;;;3.20;2.90;;;20.80;65.60;;;21.35;44.85;98673.00;4966958;28;124141;-90
2022/05/11 01:59:10;;;;;;;3.53;3.23;;;20.80;65.60;;;21.32;44.39;98677.38;4968510;28;123572;-89
2022/05/11 02:01:41;;;;;;;2.93;2.73;;;20.80;65.60;;;21.30;44.50;98673.34;4968527;28;114893;-90
2022/05/11 02:09:42;;;;;;;3.50;2.93;;;20.60;65.80;;;21.18;45.07;98669.63;4951624;28;124670;-90
2022/05/11 02:12:11;;;;;;;3.47;3.20;;;20.60;65.90;;;21.18;44.93;98666.03;4980666;28;114278;-88
2022/05/11 02:14:39;;;;;;;4.07;3.67;;;20.60;66.00;;;21.16;45.06;98676.81;4990231;28;114966;-89
2022/05/11 02:17:06;;;;;;;3.87;3.57;;;20.60;66.10;;;21.14;45.17;98670.78;4968004;28;124033;-89
2022/05/11 02:19:33;;;;;;;3.00;2.77;;;20.60;66.20;;;21.12;45.36;98667.56;4983099;28;123848;-89
2022/05/11 02:21:59;;;;;;;3.63;3.33;;;20.60;66.40;;;21.10;45.10;98667.94;4955600;28;114252;-89
2022/05/11 02:24:26;;;;;;;3.40;3.10;;;20.60;66.50;;;21.11;45.17;98677.19;4982808;28;114225;-89
2022/05/11 02:26:52;;;;;;;6.03;3.07;;;20.50;66.50;;;21.08;45.61;98670.31;4952481;28;122383;-90
2022/05/11 02:29:19;;;;;;;5.50;3.20;;;20.50;66.60;;;21.06;45.44;98674.72;4966520;28;123538;-89
2022/05/11 02:31:46;;;;;;;3.50;3.20;;;20.50;66.70;;;21.04;45.19;98669.50;4970084;28;115206;-91
2022/05/11 02:35:12;;;;;;;3.37;3.07;;;20.50;66.80;;;21.03;45.32;98669.88;4982643;28;115165;-90
2022/05/11 02:36:59;;;;;;;2.93;2.70;;;20.50;66.90;;;20.99;45.73;98669.84;4969556;28;123972;-90
2022/05/11 02:39:46;;;;;;;3.60;3.30;;;20.40;66.90;;;20.98;45.58;98668.22;4999303;28;124025;-91
2022/05/11 02:42:13;;;;;;;4.40;3.03;;;20.40;67.00;;;20.97;45.39;98675.03;4909159;28;114541;-92
2022/05/11 02:44:39;;;;;;;3.67;3.30;;;20.40;67.10;;;20.95;45.51;98672.63;4890780;28;113988;-91
2022/05/11 02:47:06;;;;;;;2.77;2.57;;;20.40;67.10;;;20.94;45.45;98668.19;4889696;28;123077;-91
2022/05/11 02:49:33;;;;;;;3.30;3.00;;;20.30;67.10;;;20.95;45.52;98669.00;4882428;28;123423;-91
2022/05/11 02:51:59;;;;;;;2.77;2.57;;;20.30;67.20;;;20.94;45.37;98664.56;4916367;28;113222;-91
2022/05/11 02:54:26;;;;;;;4.07;3.10;;;20.30;67.30;;;20.92;45.36;98669.75;4928765;28;114326;-91
2022/05/11 02:56:52;;;;;;;3.23;2.80;;;20.30;67.30;;;20.93;45.41;98665.78;4910366;28;124325;-91
2022/05/11 02:59:19;;;;;;;3.43;3.13;;;20.30;67.40;;;20.92;45.59;98664.94;4910130;28;123283;-90
2022/05/11 03:01:46;;;;;;;3.50;3.10;;;20.30;67.50;;;20.93;45.83;98665.78;4891503;28;114342;-90
2022/05/11 03:04:12;;;;;;;2.80;2.60;;;20.30;67.50;;;20.91;45.77;98663.34;4910455;28;114051;-91
2022/05/11 03:06:39;;;;;;;3.60;3.30;;;20.30;67.60;;;20.91;45.87;98660.53;4911216;28;123781;-91
2022/05/11 03:09:05;;;;;;;3.60;2.87;;;20.30;67.60;;;20.91;45.67;98668.16;4911157;28;123860;-89
2022/05/11 03:11:32;;;;;;;3.57;3.27;;;20.30;67.70;;;20.90;45.46;98667.34;4909998;28;114238;-91
2022/05/11 03:13:58;;;;;;;3.80;3.40;;;20.30;67.70;;;20.91;45.96;98668.16;4897432;28;113013;-92
2022/05/11 03:16:25;;;;;;;3.30;3.00;;;20.30;67.80;;;20.90;45.82;98663.72;4911594;28;124442;-90
2022/05/11 03:18:52;;;;;;;3.03;2.80;;;20.30;67.90;;;20.91;46.03;98663.34;4927644;28;123719;-92
2022/05/11 03:21:19;;;;;;;3.67;3.37;;;20.30;67.90;;;20.92;46.14;98664.16;4986533;28;114347;-91
2022/05/11 03:23:45;;;;;;;3.37;3.07;;;20.30;68.00;;;20.91;46.03;98657.72;4986488;28;115096;-91
2022/05/11 03:26:14;;;;;;;3.33;2.73;;;20.30;68.10;;;20.92;45.65;98661.34;4953483;28;123356;-89
2022/05/11 03:28:40;;;;;;;3.43;3.13;;;20.30;68.10;;;20.92;46.05;98658.53;4970738;28;124442;-92
2022/05/11 03:31:07;;;;;;;3.53;2.90;;;20.30;68.20;;;20.91;45.82;98656.94;4969811;28;113250;-92
2022/05/11 03:36:19;;;;;;;3.20;2.90;;;20.30;68.30;;;20.88;45.83;98654.88;4961890;28;124644;-91
2022/05/11 03:38:45;;;;;;;2.93;2.73;;;20.30;68.40;;;20.89;46.13;98664.91;4970255;28;123556;-92
2022/05/11 03:41:12;;;;;;;3.77;3.47;;;20.30;68.40;;;20.88;46.14;98652.09;4969295;28;114303;-91
2022/05/11 03:43:39;;;;;;;3.30;2.63;;;20.30;68.50;;;20.88;46.06;98657.69;5001527;28;114267;-89
2022/05/11 03:46:05;;;;;;;3.30;3.00;;;20.20;68.40;;;20.88;46.10;98657.69;4969453;28;124106;-92
2022/05/11 03:48:32;;;;;;;3.33;3.07;;;20.20;68.50;;;20.86;45.88;98660.88;4970036;28;123872;-91
2022/05/11 03:50:58;;;;;;;3.10;2.90;;;20.20;68.50;;;20.87;46.13;98650.44;4969550;28;114799;-92
2022/05/11 03:53:25;;;;;;;4.33;3.70;;;20.20;68.60;;;20.86;46.33;98657.25;4971869;28;113917;-90
2022/05/11 03:55:53;;;;;;;3.47;3.17;;;20.20;68.60;;;20.86;46.10;98657.25;4951377;28;97395;-92
2022/05/11 03:58:20;;;;;;;5.33;3.33;;;20.20;68.70;;;20.86;46.30;98654.47;4959120;28;123797;-92
2022/05/11 04:00:47;;;;;;;3.10;2.90;;;20.20;68.70;;;20.85;45.89;98656.47;4975414;28;113383;-92
2022/05/11 04:03:13;;;;;;;3.50;3.07;;;20.20;68.80;;;20.84;46.40;98651.22;4984871;28;114010;-90
2022/05/11 04:05:40;;;;;;;3.30;3.00;;;20.20;68.80;;;20.83;46.00;98655.22;4971478;28;123170;-90
2022/05/11 04:08:07;;;;;;;3.53;3.13;;;20.20;68.80;;;20.80;45.99;98664.44;4984329;28;122972;-90
2022/05/11 04:10:34;;;;;;;3.60;3.30;;;20.20;68.80;;;20.78;46.36;98664.00;4966882;28;115363;-91
2022/05/11 04:13:01;;;;;;;3.20;2.90;;;20.20;68.80;;;20.76;46.14;98653.13;4964589;28;113843;-90
2022/05/11 04:15:28;;;;;;;3.60;3.00;;;20.20;69.00;;;20.74;46.30;98661.97;4963284;28;124039;-90
2022/05/11 04:17:55;;;;;;;3.23;2.93;;;20.10;68.90;;;20.73;46.10;98662.34;4950505;28;123828;-90
2022/05/11 04:20:22;;;;;;;3.53;3.23;;;20.10;68.90;;;20.71;46.35;98659.09;4962426;28;114286;-90
2022/05/11 04:22:49;;;;;;;3.83;3.43;;;20.10;68.90;;;20.68;46.23;98657.88;4949246;28;113474;-91
2022/05/11 04:25:17;;;;;;;5.30;3.30;;;20.10;68.90;;;20.67;46.38;98661.88;4964669;28;123874;-90
2022/05/11 04:27:48;;;;;;;3.40;3.10;;;20.10;68.90;;;20.66;46.27;98667.84;4970264;28;123997;-90
2022/05/11 04:30:18;;;;;;;3.30;3.00;;;20.10;68.90;;;20.64;46.09;98675.88;4983703;28;114313;-90
2022/05/11 04:32:44;;;;;;;3.50;3.20;;;20.00;68.90;;;20.60;46.46;98658.97;4970209;28;113977;-91
2022/05/11 04:35:11;;;;;;;3.60;3.30;;;20.10;69.00;;;20.58;46.13;98668.97;4985977;28;122802;-89
2022/05/11 04:37:38;;;;;;;3.83;3.37;;;20.00;68.90;;;20.54;46.25;98660.50;4969466;28;123806;-90
2022/05/11 04:40:05;;;;;;;3.80;3.50;;;20.00;69.10;;;20.53;46.04;98670.09;4974329;28;113825;-91
2022/05/11 04:42:32;;;;;;;3.87;3.47;;;19.90;69.00;;;20.53;46.47;98664.50;4974432;28;113070;-91
2022/05/11 04:44:59;;;;;;;3.80;3.50;;;19.90;69.00;;;20.53;46.54;98664.50;4981477;28;123276;-89
2022/05/11 04:47:25;;;;;;;4.10;3.17;;;19.90;69.00;;;20.52;46.62;98672.13;4968901;28;124445;-90
2022/05/11 04:49:53;;;;;;;3.57;3.27;;;19.90;69.00;;;20.50;46.13;98671.69;4982157;28;112451;-90
2022/05/11 04:52:20;;;;;;;3.03;2.80;;;19.90;69.00;;;20.47;46.53;98674.41;4967778;28;114272;-90
2022/05/11 04:54:48;;;;;;;3.83;3.50;;;19.90;68.90;;;20.46;46.33;98670.00;4961881;28;123689;-90
2022/05/11 04:57:21;;;;;;;6.47;3.07;;;19.90;68.90;;;20.43;46.23;98671.56;4951316;28;123252;-90
2022/05/11 04:59:49;;;;;;;3.40;3.10;;;19.90;69.00;;;20.46;46.07;98681.22;4954158;28;114315;-90
2022/05/11 05:02:21;;;;;;;3.83;3.53;;;19.90;69.10;;;20.43;46.56;98680.00;4956580;28;114182;-90
2022/05/11 05:04:48;;;;;;;3.73;3.43;;;19.90;69.10;;;20.42;46.37;98680.41;4987846;28;124371;-90
2022/05/11 05:07:16;;;;;;;5.53;2.83;;;19.80;69.00;;;20.41;46.44;98668.34;4966651;28;122623;-90
2022/05/11 05:09:43;;;;;;;3.80;3.50;;;19.80;69.00;;;20.42;46.38;98680.41;4956393;28;114628;-91
2022/05/11 05:12:12;;;;;;;3.87;3.53;;;19.80;69.00;;;20.41;46.47;98678.75;4964297;28;113282;-90
2022/05/11 05:14:39;;;;;;;3.90;3.50;;;19.80;69.00;;;20.41;46.49;98682.38;4952648;28;124594;-90
2022/05/11 05:17:10;;;;;;;3.80;3.50;;;19.80;69.00;;;20.40;46.32;98683.56;4950194;28;123692;-90
2022/05/11 05:19:40;;;;;;;3.30;3.00;;;19.80;68.90;;;20.38;46.33;98679.53;4966330;28;114364;-92
2022/05/11 05:22:07;;;;;;;4.73;3.40;;;19.80;69.00;;;20.36;46.44;98681.91;4968624;28;113194;-91
2022/05/11 05:24:34;;;;;;;3.60;3.30;;;19.80;68.90;;;20.36;46.38;98691.13;4953011;28;123691;-91
2022/05/11 05:27:01;;;;;;;4.73;3.67;;;19.80;69.00;;;20.38;46.28;98690.75;4959247;28;123099;-91
2022/05/11 05:32:14;;;;;;;4.50;3.83;;;19.80;69.00;;;20.37;45.97;98694.75;4957928;28;113746;-92
2022/05/11 05:34:45;;;;;;;4.17;3.60;;;19.80;69.00;;;20.38;46.46;98685.94;4951758;28;124538;-86
2022/05/11 05:37:14;;;;;;;3.57;3.27;;;19.80;69.10;;;20.41;46.34;98692.78;4952952;28;123749;-86
2022/05/11 05:39:40;;;;;;;3.50;3.20;;;19.80;69.00;;;20.43;46.09;98693.22;4969379;28;114399;-87
2022/05/11 05:42:08;;;;;;;3.93;3.47;;;19.90;69.00;;;20.47;46.04;98694.06;4950733;28;113940;-90
2022/05/11 05:44:40;;;;;;;3.70;3.30;;;19.90;69.00;;;20.52;46.14;98688.13;4951045;28;123493;-89
2022/05/11 05:47:08;;;;;;;4.00;3.60;;;19.90;69.00;;;20.58;45.88;98691.41;4953081;28;125016;-90
2022/05/11 05:49:36;;;;;;;3.47;3.17;;;20.00;69.10;;;20.62;46.24;98692.28;4965073;28;114539;-91
2022/05/11 05:52:03;;;;;;;3.97;3.30;;;20.00;69.00;;;20.65;46.10;98695.13;4952281;28;114785;-90
2022/05/11 05:54:34;;;;;;;3.60;3.30;;;20.10;69.00;;;20.72;45.80;98686.81;4955837;28;123838;-91
2022/05/11 05:57:00;;;;;;;3.70;3.40;;;20.10;69.00;;;20.79;45.90;98683.25;4953068;28;124095;-90
2022/05/11 05:59:27;;;;;;;2.93;2.70;;;20.20;69.10;;;20.86;45.64;98682.53;4948873;28;114368;-87
2022/05/11 06:01:53;;;;;;;6.13;3.13;;;20.20;69.00;;;20.95;45.83;98689.47;4965509;28;114714;-90
2022/05/11 06:04:20;;;;;;;3.50;3.20;;;20.30;69.20;;;21.05;45.76;98679.53;4955953;28;124555;-88
2022/05/11 06:06:46;;;;;;;3.60;3.30;;;20.40;69.20;;;21.14;45.50;98679.22;4960463;28;124138;-90
2022/05/11 06:09:13;;;;;;;4.23;3.77;;;23.20;71.90;;;21.22;45.37;98683.69;4957681;28;114418;-90
2022/05/11 06:11:41;;;;;;;3.10;2.90;;;20.60;69.30;;;21.29;45.22;98672.53;4952103;28;113944;-88
2022/05/11 06:14:07;;;;;;;3.80;3.40;;;20.60;69.20;;;21.37;45.18;98681.84;4954011;28;123362;-89
2022/05/11 06:16:35;;;;;;;3.83;3.40;;;20.70;69.20;;;21.45;45.53;98679.94;4966915;28;122385;-89
2022/05/11 06:19:02;;;;;;;3.60;3.30;;;20.70;69.10;;;21.52;45.05;98685.59;4974236;28;113853;-87
2022/05/11 06:21:29;;;;;;;5.13;3.33;;;20.80;69.10;;;21.60;45.25;98674.06;4968971;28;114568;-89
2022/05/11 06:23:56;;;;;;;3.83;3.43;;;20.90;69.10;;;21.71;45.38;98687.38;4983806;28;124180;-87
2022/05/11 06:26:23;;;;;;;3.67;3.17;;;21.00;69.20;;;21.79;45.35;98675.00;4974012;28;124449;-89
2022/05/11 06:28:49;;;;;;;3.37;3.07;;;21.10;69.20;;;21.89;45.11;98677.06;4970826;28;114392;-88
2022/05/11 06:31:16;;;;;;;3.50;3.20;;;21.20;69.20;;;22.00;45.02;98680.78;4997537;28;114763;-87
2022/05/11 06:33:47;;;;;;;4.17;3.77;;;21.30;69.10;;;22.09;44.98;98668.38;4983185;28;123981;-83
2022/05/11 06:36:13;;;;;;;4.30;3.53;;;21.40;69.00;;;22.18;44.51;98680.06;4948983;28;124127;-86
2022/05/11 06:38:40;;;;;;;3.73;3.43;;;21.50;68.90;;;22.30;44.45;98678.94;4960983;28;115298;-86
2022/05/11 06:41:09;;;;;;;5.77;3.33;;;21.60;68.90;;;22.39;44.44;98671.75;4959363;28;115004;-84
2022/05/11 06:43:36;;;;;;;4.57;3.90;;;21.60;68.70;;;22.47;44.22;98667.78;4962354;28;125959;-84
2022/05/11 06:46:02;;;;;;;3.87;3.53;;;21.70;68.50;;;22.56;44.24;98669.41;4967195;28;123073;-86
2022/05/11 06:48:30;;;;;;;3.83;3.43;;;21.80;68.40;;;22.66;43.82;98663.03;4968897;28;114570;-86
2022/05/11 06:50:57;;;;;;;4.33;3.67;;;21.90;68.30;;;22.76;43.77;98659.44;4971718;28;113741;-82
2022/05/11 06:53:24;;;;;;;4.00;3.60;;;22.00;68.20;;;22.86;43.64;98661.47;4986298;28;124390;-86
2022/05/11 07:01:21;;;;;;;4.00;3.53;;;22.30;67.60;;;23.12;43.11;98656.72;4956437;28;113820;-83
2022/05/11 07:03:47;;;;;;;3.27;2.97;;;22.40;67.30;;;23.21;42.88;98659.13;4971185;28;123634;-86
2022/05/11 07:06:14;;;;;;;3.50;3.20;;;22.50;67.10;;;23.28;42.73;98662.78;4973571;28;122760;-86
2022/05/11 07:08:44;;;;;;;3.47;3.17;;;22.60;67.00;;;23.40;42.58;98649.50;4964801;28;114212;-86
2022/05/11 07:13:58;;;;;;;8.23;4.27;;;22.70;66.30;;;23.58;41.68;98650.28;4972149;28;124882;-86
2022/05/11 07:16:27;;;;;;;3.90;3.60;;;22.90;65.80;;;23.64;41.74;98645.84;4955448;28;123027;-89
2022/05/11 07:18:53;;;;;;;3.90;3.50;;;22.90;65.30;;;23.70;41.39;98647.06;4971498;28;113317;-87
2022/05/11 07:21:20;;;;;;;4.40;4.00;;;23.00;65.10;;;23.76;41.17;98650.31;4969445;28;113993;-87
2022/05/11 07:23:47;;;;;;;4.00;3.40;;;23.10;64.40;;;23.80;40.91;98651.94;4970020;28;123133;-85
2022/05/11 07:26:13;;;;;;;4.07;3.67;;;23.20;64.20;;;23.91;40.62;98651.09;4985064;28;123916;-85
2022/05/11 07:28:40;;;;;;;5.07;3.40;;;23.30;64.00;;;23.99;40.39;98650.69;4973056;28;115327;-84
2022/05/11 07:31:07;;;;;;;4.37;3.20;;;23.30;63.40;;;24.08;40.46;98641.78;4965026;28;115031;-87
2022/05/11 07:33:34;;;;;;;3.50;3.13;;;23.40;63.20;;;24.17;39.76;98638.53;4969466;28;124523;-87
2022/05/11 07:36:00;;;;;;;6.37;3.80;;;23.50;63.00;;;24.28;39.62;98639.28;4969818;28;122791;-87
2022/05/11 07:38:27;;;;;;;4.43;3.37;;;23.60;62.80;;;24.39;39.55;98644.91;4964108;28;114620;-88
2022/05/11 07:41:12;;;;;;;5.07;2.77;;;23.70;62.80;;;24.49;39.46;98646.13;4972857;28;113980;-87
2022/05/11 07:43:41;;;;;;;5.93;3.00;;;23.80;62.40;;;24.57;39.20;98634.38;4973844;28;124158;-90
2022/05/11 07:46:07;;;;;;;8.70;3.03;;;23.90;62.10;;;24.68;39.39;98642.78;4984289;28;124452;-87
2022/05/11 07:48:34;;;;;;;4.23;3.00;;;24.00;62.10;;;24.78;38.69;98635.50;4984712;28;114033;-88
2022/05/11 07:51:00;;;;;;;3.40;2.90;;;24.00;61.60;;;24.86;38.72;98642.72;4966365;28;114676;-88
2022/05/11 07:53:27;;;;;;;3.30;3.00;;;24.10;61.00;;;24.94;38.52;98640.66;4950808;28;123441;-90
2022/05/11 08:01:24;;;;;;;2.87;2.60;;;24.40;60.20;;;25.14;38.21;98642.50;4960490;28;114058;-88
2022/05/11 08:03:50;;;;;;;5.40;3.30;;;24.50;60.30;;;25.20;37.33;98645.75;4968108;28;124264;-91
2022/05/11 08:06:19;;;;;;;3.50;2.83;;;24.50;59.10;;;25.22;36.83;98625.53;4975312;28;123657;-92
2022/05/11 08:08:46;;;;;;;3.63;2.87;;;24.60;58.30;;;25.23;36.21;98639.25;4976516;28;113972;-91
2022/05/11 08:11:13;;;;;;;4.20;3.20;;;24.60;57.50;;;25.26;36.20;98626.31;4994254;28;113825;-89
2022/05/11 08:13:40;;;;;;;3.53;3.20;;;24.70;57.50;;;25.31;36.19;98623.06;4975671;28;123480;-88
2022/05/11 08:16:06;;;;;;;3.10;2.70;;;24.70;57.40;;;25.39;36.02;98624.59;4966919;28;122935;-87
2022/05/11 08:18:33;;;;;;;4.60;3.20;;;24.80;57.40;;;25.47;36.21;98625.31;4971186;28;115883;-87
2022/05/11 08:21:01;;;;;;;2.87;2.67;;;24.90;57.10;;;25.49;35.69;98617.22;4977342;28;115401;-87
2022/05/11 08:23:28;;;;;;;4.00;3.00;;;24.90;56.60;;;25.53;35.82;98612.34;4965418;28;124962;-92
2022/05/11 08:25:57;;;;;;;3.23;2.30;;;25.00;56.30;;;25.57;35.95;98619.56;4967806;28;123909;-89
2022/05/11 08:28:25;;;;;;;2.50;2.30;;;25.00;56.40;;;25.63;35.44;98617.13;4962607;28;113768;-88
2022/05/11 08:33:40;;;;;;;7.33;3.20;;;25.20;56.40;;;25.77;35.41;98616.97;4963684;28;123797;-88
2022/05/11 08:36:16;;;;;;;3.93;3.33;;;25.20;56.00;;;25.81;35.26;98616.91;4967956;28;124160;-88
2022/05/11 08:38:46;;;;;;;3.40;3.07;;;25.30;55.40;;;25.79;34.68;98605.22;4993477;28;114208;-87
2022/05/11 08:41:38;;;;;;;3.13;2.83;;;25.30;55.00;;;25.81;34.45;98611.25;4954313;28;113285;-88
2022/05/11 08:44:36;;;;;;;4.27;3.30;;;25.30;54.70;;;25.84;34.73;98615.31;4954921;28;124136;-89
2022/05/11 08:47:34;;;;;;;3.10;2.77;;;25.30;54.20;;;25.86;34.49;98619.34;4962237;28;122970;-87
2022/05/11 08:50:21;;;;;;;7.23;3.00;;;25.40;54.00;;;25.88;34.49;98602.72;4959567;28;114767;-89
2022/05/11 08:52:50;;;;;;;3.40;3.10;;;25.40;53.90;;;25.93;34.52;98602.28;4964150;28;113324;-87
2022/05/11 08:55:29;;;;;;;3.07;2.87;;;25.50;53.90;;;25.95;34.51;98602.66;4970041;28;124387;-87
2022/05/11 08:58:04;;;;;;;3.63;2.90;;;25.50;53.80;;;26.03;34.54;98594.06;4951752;28;123925;-85
2022/05/11 09:00:30;;;;;;;3.40;3.10;;;25.50;54.10;;;26.08;34.06;98590.78;4977422;28;113489;-88
2022/05/11 09:03:11;;;;;;;2.77;2.57;;;25.60;53.90;;;26.13;34.17;98588.28;4991743;28;113687;-86
2022/05/11 09:05:38;;;;;;;3.47;3.17;;;25.60;53.60;;;26.22;33.78;98590.59;4971363;28;123869;-89
2022/05/11 09:08:10;;;;;;;3.80;3.07;;;25.70;53.40;;;26.26;34.18;98585.72;4963421;28;122942;-86
2022/05/11 09:10:39;;;;;;;3.40;3.10;;;25.70;53.60;;;26.32;34.07;98588.88;4960332;28;115085;-85
2022/05/11 09:13:10;;;;;;;3.50;3.20;;;25.80;53.90;;;26.38;34.45;98588.00;4961622;28;115470;-85
2022/05/11 09:15:54;;;;;;;5.13;3.20;;;25.90;54.00;;;26.43;34.42;98584.66;4963862;28;124058;-87
2022/05/11 09:18:33;;;;;;;5.50;3.47;;;25.90;53.90;;;26.49;34.01;98592.69;4957911;28;123807;-89
2022/05/11 09:21:12;;;;;;;4.60;3.63;;;25.90;53.90;;;26.53;33.85;98582.97;4964611;28;114287;-86
2022/05/11 09:23:43;;;;;;;5.50;3.83;;;26.00;53.90;;;26.53;33.42;98587.81;4969686;28;113830;-88
2022/05/11 09:26:16;;;;;;;5.20;3.33;;;26.00;52.90;;;26.52;33.62;98589.03;4963915;28;123131;-85
2022/05/11 09:28:45;;;;;;;4.47;3.67;;;26.00;52.90;;;26.55;33.68;98596.72;4957669;28;124088;-84
2022/05/11 09:31:24;;;;;;;5.03;3.87;;;26.10;52.80;;;26.57;33.40;98595.06;4958144;28;114181;-86
2022/05/11 09:34:04;;;;;;;3.70;3.40;;;26.10;52.40;;;26.59;33.64;98581.25;4957194;28;114236;-86
2022/05/11 09:36:54;;;;;;;3.83;3.47;;;26.10;52.50;;;26.65;33.61;98581.56;4960861;28;124117;-84
2022/05/11 09:39:21;;;;;;;5.97;3.87;;;26.10;52.40;;;26.66;33.07;98574.69;4964057;28;123975;-88
2022/05/11 09:41:52;;;;;;;4.27;3.87;;;26.20;52.30;;;26.67;33.22;98571.41;4963576;28;114619;-91
2022/05/11 09:44:27;;;;;;;6.63;3.97;;;26.20;52.50;;;26.72;33.71;98570.13;4975533;28;114116;-85
2022/05/11 09:46:55;;;;;;;4.57;3.73;;;26.30;52.80;;;26.78;33.59;98576.94;4964311;28;124212;-85
2022/05/11 09:49:21;;;;;;;5.43;3.63;;;26.30;53.00;;;26.85;33.61;98571.16;4962148;28;123875;-88
2022/05/11 09:51:50;;;;;;;4.03;3.60;;;26.30;53.10;;;26.95;34.00;98560.91;4959793;28;114297;-84
2022/05/11 09:54:42;;;;;;;4.77;3.43;;;26.40;53.10;;;27.01;33.71;98552.69;4951561;28;113904;-85
2022/05/11 09:57:09;;;;;;;5.37;4.33;;;26.50;53.10;;;27.08;33.32;98567.56;4972171;28;123799;-85
2022/05/11 09:59:49;;;;;;;7.03;4.00;;;26.50;52.80;;;27.10;32.95;98552.94;4962032;28;124855;-85
2022/05/11 10:02:39;;;;;;;4.33;3.93;;;26.60;52.10;;;27.12;33.21;98558.19;4975776;28;115206;-85
2022/05/11 10:05:19;;;;;;;4.13;3.60;;;26.70;52.30;;;27.17;33.24;98560.59;4959789;28;115352;-85
2022/05/11 10:07:52;;;;;;;3.80;3.50;;;26.70;52.20;;;27.17;33.43;98547.19;4996348;28;123322;-84
2022/05/11 10:10:48;;;;;;;5.43;4.17;;;26.70;52.10;;;27.20;33.38;98540.66;4983559;28;122776;-87
2022/05/11 10:21:50;;;;;;;4.20;3.80;;;26.70;52.20;;;27.26;33.67;98533.25;4967353;28;114997;-88
2022/05/11 10:22:51;;;;;;;3.60;3.30;;;26.90;52.10;;;27.44;33.25;98523.63;4969424;28;124949;-86
2022/05/11 10:25:40;;;;;;;3.77;3.40;;;26.90;52.10;;;27.54;32.87;98525.47;4948179;28;114019;-85
2022/05/11 10:28:39;;;;;;;6.20;3.90;;;27.00;51.90;;;27.59;32.61;98516.44;4959459;28;114084;-86
2022/05/11 10:31:32;;;;;;;3.80;3.50;;;27.10;51.60;;;27.64;32.60;98517.97;4992186;28;124432;-87
2022/05/11 10:34:35;;;;;;;4.20;3.80;;;27.10;51.00;;;27.65;32.30;98522.44;4965217;28;124004;-86
2022/05/11 10:37:23;;;;;;;4.10;3.37;;;27.20;51.00;;;27.71;32.30;98503.66;4977085;28;114307;-87
2022/05/11 10:40:17;;;;;;;4.50;3.80;;;27.20;50.80;;;27.76;32.24;98515.31;4984541;28;112699;-86
2022/05/11 10:43:03;;;;;;;4.50;3.63;;;27.30;50.40;;;27.80;31.70;98517.25;4957485;28;124340;-84
2022/05/11 10:45:42;;;;;;;3.90;3.30;;;27.30;49.90;;;27.83;30.76;98497.34;4984436;28;123538;-86
2022/05/11 10:48:09;;;;;;;3.60;3.30;;;27.30;48.70;;;27.86;31.01;98495.66;4946564;28;112854;-86
2022/05/11 10:51:15;;;;;;;4.03;3.60;;;27.40;48.50;;;27.85;30.62;98486.34;4968360;28;115907;-86
2022/05/11 10:54:12;;;;;;;3.80;3.37;;;27.40;48.00;;;27.89;30.61;98483.47;4984696;28;123760;-86
2022/05/11 10:57:12;;;;;;;4.33;3.30;;;27.40;47.60;;;27.94;30.25;98480.06;4968739;28;124006;-85
2022/05/11 11:00:10;;;;;;;4.20;3.03;;;27.50;47.30;;;28.02;29.67;98486.41;4982451;28;115346;-85
2022/05/11 11:03:23;;;;;;;7.03;3.47;;;27.50;46.70;;;28.09;29.47;98470.03;4989093;28;115397;-86